sensor_id;sensor_type;location;lat;lon;timestamp;temperature;humidity
29713;DHT22;16623;53.632;10.016;2023-05-27T00:01:42;10.50;99.90
29713;DHT22;16623;53.632;10.016;2023-05-27T00:04:07;11.40;99.90
29713;DHT22;16623;53.632;10.016;2023-05-27T00:06:32;10.60;99.90
29713;DHT22;16623;53.632;10.016;2023-05-27T00:08:58;10.50;99.90
29713;DHT22;16623;53.632;10.016;2023-05-27T00:11:24;10.40;99.90
29713;DHT22;16623;53.632;10.016;2023-05-27T00:13:50;10.30;99.90
29713;DHT22;16623;53.632;10.016;2023-05-27T00:16:15;10.20;99.90
29713;DHT22;16623;53.632;10.016;2023-05-27T00:18:42;10.30;99.90
29713;DHT22;16623;53.632;10.016;2023-05-27T00:21:07;10.30;99.90
29713;DHT22;16623;53.632;10.016;2023-05-27T00:23:33;10.30;99.90
29713;DHT22;16623;53.632;10.016;2023-05-27T00:25:58;10.30;99.90
29713;DHT22;16623;53.632;10.016;2023-05-27T00:28:24;10.20;99.90
29713;DHT22;16623;53.632;10.016;2023-05-27T00:30:49;10.20;99.90
29713;DHT22;16623;53.632;10.016;2023-05-27T00:33:15;10.20;99.90
29713;DHT22;16623;53.632;10.016;2023-05-27T00:35:41;10.10;99.90
29713;DHT22;16623;53.632;10.016;2023-05-27T00:38:06;10.10;99.90
29713;DHT22;16623;53.632;10.016;2023-05-27T00:40:34;10.10;99.90
29713;DHT22;16623;53.632;10.016;2023-05-27T00:43:01;10.10;99.90
29713;DHT22;16623;53.632;10.016;2023-05-27T00:45:26;10.10;99.90
29713;DHT22;16623;53.632;10.016;2023-05-27T00:47:52;10.10;99.90
29713;DHT22;16623;53.632;10.016;2023-05-27T00:50:18;10.10;99.90
29713;DHT22;16623;53.632;10.016;2023-05-27T00:52:44;10.10;99.90
29713;DHT22;16623;53.632;10.016;2023-05-27T00:55:09;10.00;99.90
29713;DHT22;16623;53.632;10.016;2023-05-27T00:57:36;10.10;99.90
29713;DHT22;16623;53.632;10.016;2023-05-27T01:00:02;10.10;99.90
29713;DHT22;16623;53.632;10.016;2023-05-27T01:02:32;10.00;99.90
29713;DHT22;16623;53.632;10.016;2023-05-27T01:04:57;9.90;99.90
29713;DHT22;16623;53.632;10.016;2023-05-27T01:07:31;10.00;99.90
29713;DHT22;16623;53.632;10.016;2023-05-27T01:10:10;9.90;99.90
29713;DHT22;16623;53.632;10.016;2023-05-27T01:12:55;9.90;99.90
29713;DHT22;16623;53.632;10.016;2023-05-27T01:15:24;9.90;99.90
29713;DHT22;16623;53.632;10.016;2023-05-27T01:17:55;9.80;99.90
29713;DHT22;16623;53.632;10.016;2023-05-27T01:20:21;9.70;99.90
29713;DHT22;16623;53.632;10.016;2023-05-27T01:22:47;9.60;99.90
29713;DHT22;16623;53.632;10.016;2023-05-27T01:25:17;9.60;99.90
29713;DHT22;16623;53.632;10.016;2023-05-27T01:27:44;9.70;99.90
29713;DHT22;16623;53.632;10.016;2023-05-27T01:30:10;9.70;99.90
29713;DHT22;16623;53.632;10.016;2023-05-27T01:35:17;9.50;99.90
29713;DHT22;16623;53.632;10.016;2023-05-27T01:37:48;9.60;99.90
29713;DHT22;16623;53.632;10.016;2023-05-27T01:40:16;9.60;99.90
29713;DHT22;16623;53.632;10.016;2023-05-27T01:42:43;9.60;99.90
29713;DHT22;16623;53.632;10.016;2023-05-27T01:45:10;9.70;99.90
29713;DHT22;16623;53.632;10.016;2023-05-27T01:47:35;9.60;99.90
29713;DHT22;16623;53.632;10.016;2023-05-27T01:50:01;9.50;99.90
29713;DHT22;16623;53.632;10.016;2023-05-27T01:52:27;9.50;99.90
29713;DHT22;16623;53.632;10.016;2023-05-27T01:54:52;9.50;99.90
29713;DHT22;16623;53.632;10.016;2023-05-27T01:57:19;9.50;99.90
29713;DHT22;16623;53.632;10.016;2023-05-27T01:59:44;9.50;99.90
29713;DHT22;16623;53.632;10.016;2023-05-27T02:02:10;9.50;99.90
29713;DHT22;16623;53.632;10.016;2023-05-27T02:04:36;9.50;99.90
29713;DHT22;16623;53.632;10.016;2023-05-27T02:07:02;9.40;99.90
29713;DHT22;16623;53.632;10.016;2023-05-27T02:09:29;9.30;99.90
29713;DHT22;16623;53.632;10.016;2023-05-27T02:11:54;9.30;99.90
29713;DHT22;16623;53.632;10.016;2023-05-27T02:14:20;9.30;99.90
29713;DHT22;16623;53.632;10.016;2023-05-27T02:16:46;9.20;99.90
29713;DHT22;16623;53.632;10.016;2023-05-27T02:19:12;9.20;99.90
29713;DHT22;16623;53.632;10.016;2023-05-27T02:21:40;9.30;99.90
29713;DHT22;16623;53.632;10.016;2023-05-27T02:24:06;9.20;99.90
29713;DHT22;16623;53.632;10.016;2023-05-27T02:26:32;9.10;99.90
29713;DHT22;16623;53.632;10.016;2023-05-27T02:28:57;9.00;99.90
29713;DHT22;16623;53.632;10.016;2023-05-27T02:31:24;9.00;99.90
29713;DHT22;16623;53.632;10.016;2023-05-27T02:33:50;9.00;99.90
29713;DHT22;16623;53.632;10.016;2023-05-27T02:36:15;9.00;99.90
29713;DHT22;16623;53.632;10.016;2023-05-27T02:38:41;9.00;99.90
29713;DHT22;16623;53.632;10.016;2023-05-27T02:41:06;9.00;99.90
29713;DHT22;16623;53.632;10.016;2023-05-27T02:43:32;9.00;99.90
29713;DHT22;16623;53.632;10.016;2023-05-27T02:45:57;8.90;99.90
29713;DHT22;16623;53.632;10.016;2023-05-27T02:48:23;9.00;99.90
29713;DHT22;16623;53.632;10.016;2023-05-27T02:50:48;8.90;99.90
29713;DHT22;16623;53.632;10.016;2023-05-27T02:53:14;8.90;99.90
29713;DHT22;16623;53.632;10.016;2023-05-27T02:55:40;8.90;99.90
29713;DHT22;16623;53.632;10.016;2023-05-27T02:58:06;8.90;99.90
29713;DHT22;16623;53.632;10.016;2023-05-27T03:00:32;8.80;99.90
29713;DHT22;16623;53.632;10.016;2023-05-27T03:02:59;8.80;99.90
29713;DHT22;16623;53.632;10.016;2023-05-27T03:05:25;8.60;99.90
29713;DHT22;16623;53.632;10.016;2023-05-27T03:07:51;8.60;99.90
29713;DHT22;16623;53.632;10.016;2023-05-27T03:10:17;8.60;99.90
29713;DHT22;16623;53.632;10.016;2023-05-27T03:12:42;8.70;99.90
29713;DHT22;16623;53.632;10.016;2023-05-27T03:15:08;8.70;99.90
29713;DHT22;16623;53.632;10.016;2023-05-27T03:17:36;8.70;99.90
29713;DHT22;16623;53.632;10.016;2023-05-27T03:20:03;8.70;99.90
29713;DHT22;16623;53.632;10.016;2023-05-27T03:22:29;8.70;99.90
29713;DHT22;16623;53.632;10.016;2023-05-27T03:24:54;8.70;99.90
29713;DHT22;16623;53.632;10.016;2023-05-27T03:27:20;8.80;99.90
29713;DHT22;16623;53.632;10.016;2023-05-27T03:29:46;8.60;99.90
29713;DHT22;16623;53.632;10.016;2023-05-27T03:32:11;8.70;99.90
29713;DHT22;16623;53.632;10.016;2023-05-27T03:34:37;8.80;99.90
29713;DHT22;16623;53.632;10.016;2023-05-27T03:37:03;8.80;99.90
29713;DHT22;16623;53.632;10.016;2023-05-27T03:39:29;8.80;99.90
29713;DHT22;16623;53.632;10.016;2023-05-27T03:41:54;8.80;99.90
29713;DHT22;16623;53.632;10.016;2023-05-27T03:44:20;8.90;99.90
29713;DHT22;16623;53.632;10.016;2023-05-27T03:46:45;9.90;99.90
29713;DHT22;16623;53.632;10.016;2023-05-27T03:49:11;8.80;99.90
29713;DHT22;16623;53.632;10.016;2023-05-27T03:51:36;8.80;99.90
29713;DHT22;16623;53.632;10.016;2023-05-27T03:54:02;8.90;99.90
29713;DHT22;16623;53.632;10.016;2023-05-27T03:56:28;8.90;99.90
29713;DHT22;16623;53.632;10.016;2023-05-27T03:58:53;8.80;99.90
29713;DHT22;16623;53.632;10.016;2023-05-27T04:01:19;8.80;99.90
29713;DHT22;16623;53.632;10.016;2023-05-27T04:03:45;9.00;99.90
29713;DHT22;16623;53.632;10.016;2023-05-27T04:06:11;9.00;99.90
29713;DHT22;16623;53.632;10.016;2023-05-27T04:08:36;8.90;99.90
29713;DHT22;16623;53.632;10.016;2023-05-27T04:11:04;9.00;99.90
29713;DHT22;16623;53.632;10.016;2023-05-27T04:13:30;9.00;99.90
29713;DHT22;16623;53.632;10.016;2023-05-27T04:15:55;9.10;99.90
29713;DHT22;16623;53.632;10.016;2023-05-27T04:18:22;9.10;99.90
29713;DHT22;16623;53.632;10.016;2023-05-27T04:20:48;9.10;99.90
29713;DHT22;16623;53.632;10.016;2023-05-27T04:23:16;9.10;99.90
29713;DHT22;16623;53.632;10.016;2023-05-27T04:25:41;9.30;99.90
29713;DHT22;16623;53.632;10.016;2023-05-27T04:28:08;9.40;99.90
29713;DHT22;16623;53.632;10.016;2023-05-27T04:30:35;9.50;99.90
29713;DHT22;16623;53.632;10.016;2023-05-27T04:33:04;9.70;99.90
29713;DHT22;16623;53.632;10.016;2023-05-27T04:35:30;10.00;99.90
29713;DHT22;16623;53.632;10.016;2023-05-27T04:37:59;10.20;99.90
29713;DHT22;16623;53.632;10.016;2023-05-27T04:40:26;10.60;99.90
29713;DHT22;16623;53.632;10.016;2023-05-27T04:42:52;10.80;99.90
29713;DHT22;16623;53.632;10.016;2023-05-27T04:45:17;11.10;99.90
29713;DHT22;16623;53.632;10.016;2023-05-27T04:47:44;11.40;99.90
29713;DHT22;16623;53.632;10.016;2023-05-27T04:50:10;11.60;99.90
29713;DHT22;16623;53.632;10.016;2023-05-27T04:52:38;11.60;99.90
29713;DHT22;16623;53.632;10.016;2023-05-27T04:55:05;11.40;99.90
29713;DHT22;16623;53.632;10.016;2023-05-27T04:57:31;11.60;99.90
29713;DHT22;16623;53.632;10.016;2023-05-27T04:59:56;11.70;99.90
29713;DHT22;16623;53.632;10.016;2023-05-27T05:02:45;11.80;99.90
29713;DHT22;16623;53.632;10.016;2023-05-27T05:05:13;11.60;99.90
29713;DHT22;16623;53.632;10.016;2023-05-27T05:07:40;11.50;99.90
29713;DHT22;16623;53.632;10.016;2023-05-27T05:10:07;11.50;99.90
29713;DHT22;16623;53.632;10.016;2023-05-27T05:12:34;10.80;99.90
29713;DHT22;16623;53.632;10.016;2023-05-27T05:15:00;10.70;99.90
29713;DHT22;16623;53.632;10.016;2023-05-27T05:17:27;10.60;99.90
29713;DHT22;16623;53.632;10.016;2023-05-27T05:19:53;10.50;99.90
29713;DHT22;16623;53.632;10.016;2023-05-27T05:22:19;10.60;99.90
29713;DHT22;16623;53.632;10.016;2023-05-27T05:24:46;10.70;99.90
29713;DHT22;16623;53.632;10.016;2023-05-27T05:27:12;10.70;99.90
29713;DHT22;16623;53.632;10.016;2023-05-27T05:29:37;10.80;99.90
29713;DHT22;16623;53.632;10.016;2023-05-27T05:32:04;10.70;99.90
29713;DHT22;16623;53.632;10.016;2023-05-27T05:34:29;10.70;99.90
29713;DHT22;16623;53.632;10.016;2023-05-27T05:36:55;11.00;99.90
29713;DHT22;16623;53.632;10.016;2023-05-27T05:39:21;11.20;99.90
29713;DHT22;16623;53.632;10.016;2023-05-27T05:41:46;11.10;99.90
29713;DHT22;16623;53.632;10.016;2023-05-27T05:46:38;11.20;99.90
29713;DHT22;16623;53.632;10.016;2023-05-27T05:49:04;11.30;99.90
29713;DHT22;16623;53.632;10.016;2023-05-27T05:51:31;11.00;99.90
29713;DHT22;16623;53.632;10.016;2023-05-27T05:53:59;11.00;99.90
29713;DHT22;16623;53.632;10.016;2023-05-27T05:56:25;11.30;99.90
29713;DHT22;16623;53.632;10.016;2023-05-27T05:58:54;11.10;99.90
29713;DHT22;16623;53.632;10.016;2023-05-27T06:01:20;11.10;99.90
29713;DHT22;16623;53.632;10.016;2023-05-27T06:03:45;11.10;99.90
29713;DHT22;16623;53.632;10.016;2023-05-27T06:06:11;11.10;99.90
29713;DHT22;16623;53.632;10.016;2023-05-27T06:08:37;11.20;99.90
29713;DHT22;16623;53.632;10.016;2023-05-27T06:11:03;11.20;99.90
29713;DHT22;16623;53.632;10.016;2023-05-27T06:13:28;11.30;99.90
29713;DHT22;16623;53.632;10.016;2023-05-27T06:15:54;11.40;99.90
29713;DHT22;16623;53.632;10.016;2023-05-27T06:18:23;11.40;99.90
29713;DHT22;16623;53.632;10.016;2023-05-27T06:20:49;11.50;99.90
29713;DHT22;16623;53.632;10.016;2023-05-27T06:23:15;11.60;99.90
29713;DHT22;16623;53.632;10.016;2023-05-27T06:25:40;11.70;99.90
29713;DHT22;16623;53.632;10.016;2023-05-27T06:28:06;11.70;99.90
29713;DHT22;16623;53.632;10.016;2023-05-27T06:30:32;11.70;99.90
29713;DHT22;16623;53.632;10.016;2023-05-27T06:33:01;11.80;99.90
29713;DHT22;16623;53.632;10.016;2023-05-27T06:35:26;11.80;99.90
29713;DHT22;16623;53.632;10.016;2023-05-27T06:37:52;12.00;99.90
29713;DHT22;16623;53.632;10.016;2023-05-27T06:40:17;12.10;99.90
29713;DHT22;16623;53.632;10.016;2023-05-27T06:42:43;12.20;99.90
29713;DHT22;16623;53.632;10.016;2023-05-27T06:45:10;12.50;99.90
29713;DHT22;16623;53.632;10.016;2023-05-27T06:47:36;13.00;99.90
29713;DHT22;16623;53.632;10.016;2023-05-27T06:50:02;13.60;99.90
29713;DHT22;16623;53.632;10.016;2023-05-27T06:52:27;14.00;99.90
29713;DHT22;16623;53.632;10.016;2023-05-27T06:54:53;14.30;99.90
29713;DHT22;16623;53.632;10.016;2023-05-27T06:57:18;14.80;99.90
29713;DHT22;16623;53.632;10.016;2023-05-27T06:59:45;14.80;99.90
29713;DHT22;16623;53.632;10.016;2023-05-27T07:02:11;14.80;99.90
29713;DHT22;16623;53.632;10.016;2023-05-27T07:04:38;14.60;99.90
29713;DHT22;16623;53.632;10.016;2023-05-27T07:07:06;14.40;99.90
29713;DHT22;16623;53.632;10.016;2023-05-27T07:09:31;14.00;99.90
29713;DHT22;16623;53.632;10.016;2023-05-27T07:11:57;13.90;99.90
29713;DHT22;16623;53.632;10.016;2023-05-27T07:14:22;13.90;99.90
29713;DHT22;16623;53.632;10.016;2023-05-27T07:16:48;13.70;99.90
29713;DHT22;16623;53.632;10.016;2023-05-27T07:19:14;13.70;99.90
29713;DHT22;16623;53.632;10.016;2023-05-27T07:21:39;13.60;99.90
29713;DHT22;16623;53.632;10.016;2023-05-27T07:24:05;13.60;99.90
29713;DHT22;16623;53.632;10.016;2023-05-27T07:26:32;13.70;99.90
29713;DHT22;16623;53.632;10.016;2023-05-27T07:29:01;13.80;99.90
29713;DHT22;16623;53.632;10.016;2023-05-27T07:31:27;13.90;99.90
29713;DHT22;16623;53.632;10.016;2023-05-27T07:33:53;13.90;99.90
29713;DHT22;16623;53.632;10.016;2023-05-27T07:36:19;14.00;99.90
29713;DHT22;16623;53.632;10.016;2023-05-27T07:38:46;14.10;99.90
29713;DHT22;16623;53.632;10.016;2023-05-27T07:41:13;14.20;99.90
29713;DHT22;16623;53.632;10.016;2023-05-27T07:43:39;14.30;99.90
29713;DHT22;16623;53.632;10.016;2023-05-27T07:46:05;14.30;99.90
29713;DHT22;16623;53.632;10.016;2023-05-27T07:48:30;14.50;99.90
29713;DHT22;16623;53.632;10.016;2023-05-27T07:50:56;14.70;99.90
29713;DHT22;16623;53.632;10.016;2023-05-27T07:53:22;14.80;99.90
29713;DHT22;16623;53.632;10.016;2023-05-27T07:55:48;15.20;99.90
29713;DHT22;16623;53.632;10.016;2023-05-27T07:58:14;15.20;99.90
29713;DHT22;16623;53.632;10.016;2023-05-27T08:00:39;15.30;99.90
29713;DHT22;16623;53.632;10.016;2023-05-27T08:03:05;15.30;99.90
29713;DHT22;16623;53.632;10.016;2023-05-27T08:05:31;15.30;99.90
29713;DHT22;16623;53.632;10.016;2023-05-27T08:07:58;15.30;99.90
29713;DHT22;16623;53.632;10.016;2023-05-27T08:10:25;15.30;99.90
29713;DHT22;16623;53.632;10.016;2023-05-27T08:12:50;15.30;99.90
29713;DHT22;16623;53.632;10.016;2023-05-27T08:15:16;15.30;99.90
29713;DHT22;16623;53.632;10.016;2023-05-27T08:17:41;15.40;99.90
29713;DHT22;16623;53.632;10.016;2023-05-27T08:20:09;15.40;99.90
29713;DHT22;16623;53.632;10.016;2023-05-27T08:22:35;15.40;99.90
29713;DHT22;16623;53.632;10.016;2023-05-27T08:25:04;15.50;99.90
29713;DHT22;16623;53.632;10.016;2023-05-27T08:27:50;15.50;99.90
29713;DHT22;16623;53.632;10.016;2023-05-27T08:30:17;15.50;99.90
29713;DHT22;16623;53.632;10.016;2023-05-27T08:32:43;15.70;99.90
29713;DHT22;16623;53.632;10.016;2023-05-27T08:35:12;15.70;99.90
29713;DHT22;16623;53.632;10.016;2023-05-27T08:37:38;15.90;99.90
29713;DHT22;16623;53.632;10.016;2023-05-27T08:40:06;15.90;99.90
29713;DHT22;16623;53.632;10.016;2023-05-27T08:42:34;16.00;99.90
29713;DHT22;16623;53.632;10.016;2023-05-27T08:45:00;16.10;99.90
29713;DHT22;16623;53.632;10.016;2023-05-27T08:47:28;16.20;99.90
29713;DHT22;16623;53.632;10.016;2023-05-27T08:49:53;16.20;99.90
29713;DHT22;16623;53.632;10.016;2023-05-27T08:52:19;16.30;99.90
29713;DHT22;16623;53.632;10.016;2023-05-27T08:54:46;16.40;99.90
29713;DHT22;16623;53.632;10.016;2023-05-27T08:57:13;16.40;99.90
29713;DHT22;16623;53.632;10.016;2023-05-27T08:59:42;16.50;99.90
29713;DHT22;16623;53.632;10.016;2023-05-27T09:02:11;16.60;99.90
29713;DHT22;16623;53.632;10.016;2023-05-27T09:04:39;16.70;99.90
29713;DHT22;16623;53.632;10.016;2023-05-27T09:07:06;16.80;99.90
29713;DHT22;16623;53.632;10.016;2023-05-27T09:09:31;16.80;99.90
29713;DHT22;16623;53.632;10.016;2023-05-27T09:12:03;16.90;99.90
29713;DHT22;16623;53.632;10.016;2023-05-27T09:14:30;16.90;99.90
29713;DHT22;16623;53.632;10.016;2023-05-27T09:16:56;16.80;99.90
29713;DHT22;16623;53.632;10.016;2023-05-27T09:19:25;16.70;99.90
29713;DHT22;16623;53.632;10.016;2023-05-27T09:21:53;16.70;99.90
29713;DHT22;16623;53.632;10.016;2023-05-27T09:24:19;16.60;99.90
29713;DHT22;16623;53.632;10.016;2023-05-27T09:26:50;16.80;99.90
29713;DHT22;16623;53.632;10.016;2023-05-27T09:29:18;17.10;99.90
29713;DHT22;16623;53.632;10.016;2023-05-27T09:31:44;17.30;99.90
29713;DHT22;16623;53.632;10.016;2023-05-27T09:34:15;17.60;99.90
29713;DHT22;16623;53.632;10.016;2023-05-27T09:36:45;17.80;99.90
29713;DHT22;16623;53.632;10.016;2023-05-27T09:39:13;17.90;99.90
29713;DHT22;16623;53.632;10.016;2023-05-27T09:41:40;18.00;99.90
29713;DHT22;16623;53.632;10.016;2023-05-27T09:44:07;18.10;99.90
29713;DHT22;16623;53.632;10.016;2023-05-27T09:46:33;18.10;99.90
29713;DHT22;16623;53.632;10.016;2023-05-27T09:48:59;18.10;99.90
29713;DHT22;16623;53.632;10.016;2023-05-27T09:51:32;18.10;99.90
29713;DHT22;16623;53.632;10.016;2023-05-27T09:53:58;18.10;99.90
29713;DHT22;16623;53.632;10.016;2023-05-27T09:56:29;17.90;99.90
29713;DHT22;16623;53.632;10.016;2023-05-27T09:58:56;18.00;99.90
29713;DHT22;16623;53.632;10.016;2023-05-27T10:01:26;18.00;99.90
29713;DHT22;16623;53.632;10.016;2023-05-27T10:03:55;18.00;99.90
29713;DHT22;16623;53.632;10.016;2023-05-27T10:06:25;18.20;99.90
29713;DHT22;16623;53.632;10.016;2023-05-27T10:08:55;18.20;99.90
29713;DHT22;16623;53.632;10.016;2023-05-27T10:11:24;18.30;99.90
29713;DHT22;16623;53.632;10.016;2023-05-27T10:13:51;18.40;99.90
29713;DHT22;16623;53.632;10.016;2023-05-27T10:16:22;18.70;99.90
29713;DHT22;16623;53.632;10.016;2023-05-27T10:18:52;19.00;98.80
29713;DHT22;16623;53.632;10.016;2023-05-27T10:21:20;19.40;98.50
29713;DHT22;16623;53.632;10.016;2023-05-27T10:23:59;19.50;97.20
29713;DHT22;16623;53.632;10.016;2023-05-27T10:26:36;19.50;97.20
29713;DHT22;16623;53.632;10.016;2023-05-27T10:29:06;19.50;97.10
29713;DHT22;16623;53.632;10.016;2023-05-27T10:31:33;19.60;97.20
29713;DHT22;16623;53.632;10.016;2023-05-27T10:33:59;19.60;96.50
29713;DHT22;16623;53.632;10.016;2023-05-27T10:36:27;19.80;95.50
29713;DHT22;16623;53.632;10.016;2023-05-27T10:39:03;20.00;95.50
29713;DHT22;16623;53.632;10.016;2023-05-27T10:41:54;20.10;94.40
29713;DHT22;16623;53.632;10.016;2023-05-27T10:44:27;19.90;95.30
29713;DHT22;16623;53.632;10.016;2023-05-27T10:47:03;19.80;94.70
29713;DHT22;16623;53.632;10.016;2023-05-27T10:49:35;19.70;94.40
29713;DHT22;16623;53.632;10.016;2023-05-27T10:52:11;19.50;93.40
29713;DHT22;16623;53.632;10.016;2023-05-27T10:54:43;19.70;93.80
29713;DHT22;16623;53.632;10.016;2023-05-27T10:57:09;19.60;93.40
29713;DHT22;16623;53.632;10.016;2023-05-27T11:02:13;19.80;94.50
29713;DHT22;16623;53.632;10.016;2023-05-27T11:04:38;19.80;94.20
29713;DHT22;16623;53.632;10.016;2023-05-27T11:07:04;19.80;93.90
29713;DHT22;16623;53.632;10.016;2023-05-27T11:09:50;19.90;94.40
29713;DHT22;16623;53.632;10.016;2023-05-27T11:12:17;19.80;92.70
29713;DHT22;16623;53.632;10.016;2023-05-27T11:14:48;19.40;92.40
29713;DHT22;16623;53.632;10.016;2023-05-27T11:17:14;18.80;93.70
29713;DHT22;16623;53.632;10.016;2023-05-27T11:19:40;18.70;94.50
29713;DHT22;16623;53.632;10.016;2023-05-27T11:22:09;18.70;94.70
29713;DHT22;16623;53.632;10.016;2023-05-27T11:24:36;18.80;95.40
29713;DHT22;16623;53.632;10.016;2023-05-27T11:27:13;18.90;94.90
29713;DHT22;16623;53.632;10.016;2023-05-27T11:29:40;19.10;94.20
29713;DHT22;16623;53.632;10.016;2023-05-27T11:32:16;18.90;93.70
29713;DHT22;16623;53.632;10.016;2023-05-27T11:34:44;18.60;93.00
29713;DHT22;16623;53.632;10.016;2023-05-27T11:37:10;18.60;94.30
29713;DHT22;16623;53.632;10.016;2023-05-27T11:39:36;18.90;94.10
29713;DHT22;16623;53.632;10.016;2023-05-27T11:42:05;19.10;93.80
29713;DHT22;16623;53.632;10.016;2023-05-27T11:44:34;19.20;93.80
29713;DHT22;16623;53.632;10.016;2023-05-27T11:47:01;19.30;93.70
29713;DHT22;16623;53.632;10.016;2023-05-27T11:49:27;19.60;93.10
29713;DHT22;16623;53.632;10.016;2023-05-27T11:51:56;19.70;93.60
29713;DHT22;16623;53.632;10.016;2023-05-27T11:54:23;20.00;93.10
29713;DHT22;16623;53.632;10.016;2023-05-27T11:56:50;19.80;91.60
29713;DHT22;16623;53.632;10.016;2023-05-27T11:59:16;19.50;91.90
29713;DHT22;16623;53.632;10.016;2023-05-27T12:01:42;19.50;92.30
29713;DHT22;16623;53.632;10.016;2023-05-27T12:04:08;19.50;92.90
29713;DHT22;16623;53.632;10.016;2023-05-27T12:06:35;19.20;91.70
29713;DHT22;16623;53.632;10.016;2023-05-27T12:09:03;19.10;92.50
29713;DHT22;16623;53.632;10.016;2023-05-27T12:11:29;19.10;92.40
29713;DHT22;16623;53.632;10.016;2023-05-27T12:13:55;19.00;91.80
29713;DHT22;16623;53.632;10.016;2023-05-27T12:16:20;18.90;91.60
29713;DHT22;16623;53.632;10.016;2023-05-27T12:18:46;18.70;91.70
29713;DHT22;16623;53.632;10.016;2023-05-27T12:21:13;18.70;92.20
29713;DHT22;16623;53.632;10.016;2023-05-27T12:23:38;18.60;92.80
29713;DHT22;16623;53.632;10.016;2023-05-27T12:26:04;18.80;93.40
29713;DHT22;16623;53.632;10.016;2023-05-27T12:28:30;19.20;93.40
29713;DHT22;16623;53.632;10.016;2023-05-27T12:30:55;19.40;91.50
29713;DHT22;16623;53.632;10.016;2023-05-27T12:33:21;19.50;91.80
29713;DHT22;16623;53.632;10.016;2023-05-27T12:35:47;19.80;91.90
29713;DHT22;16623;53.632;10.016;2023-05-27T12:38:13;19.80;91.60
29713;DHT22;16623;53.632;10.016;2023-05-27T12:40:38;19.80;91.30
29713;DHT22;16623;53.632;10.016;2023-05-27T12:43:04;19.80;90.30
29713;DHT22;16623;53.632;10.016;2023-05-27T12:45:32;19.70;90.70
29713;DHT22;16623;53.632;10.016;2023-05-27T12:47:58;19.80;91.70
29713;DHT22;16623;53.632;10.016;2023-05-27T12:50:24;20.00;90.40
29713;DHT22;16623;53.632;10.016;2023-05-27T12:52:50;20.00;90.50
29713;DHT22;16623;53.632;10.016;2023-05-27T12:55:19;20.30;90.90
29713;DHT22;16623;53.632;10.016;2023-05-27T12:57:48;20.20;90.30
29713;DHT22;16623;53.632;10.016;2023-05-27T13:00:23;19.90;90.60
29713;DHT22;16623;53.632;10.016;2023-05-27T13:05:17;19.70;90.20
29713;DHT22;16623;53.632;10.016;2023-05-27T13:10:20;19.60;91.00
29713;DHT22;16623;53.632;10.016;2023-05-27T13:12:47;19.40;90.60
29713;DHT22;16623;53.632;10.016;2023-05-27T13:15:13;19.40;90.50
29713;DHT22;16623;53.632;10.016;2023-05-27T13:17:38;19.40;90.70
29713;DHT22;16623;53.632;10.016;2023-05-27T13:20:07;19.50;91.20
29713;DHT22;16623;53.632;10.016;2023-05-27T13:22:34;19.70;91.00
29713;DHT22;16623;53.632;10.016;2023-05-27T13:25:00;19.80;90.10
29713;DHT22;16623;53.632;10.016;2023-05-27T13:27:26;19.90;90.90
29713;DHT22;16623;53.632;10.016;2023-05-27T13:29:52;19.90;89.30
29713;DHT22;16623;53.632;10.016;2023-05-27T13:32:18;19.80;90.00
29713;DHT22;16623;53.632;10.016;2023-05-27T13:34:43;20.10;90.60
29713;DHT22;16623;53.632;10.016;2023-05-27T13:37:09;20.20;90.00
29713;DHT22;16623;53.632;10.016;2023-05-27T13:39:35;20.40;89.30
29713;DHT22;16623;53.632;10.016;2023-05-27T13:42:00;20.40;88.00
29713;DHT22;16623;53.632;10.016;2023-05-27T13:44:26;20.60;88.80
29713;DHT22;16623;53.632;10.016;2023-05-27T13:46:51;20.60;86.90
29713;DHT22;16623;53.632;10.016;2023-05-27T13:49:17;20.80;86.50
29713;DHT22;16623;53.632;10.016;2023-05-27T13:51:46;20.80;86.80
29713;DHT22;16623;53.632;10.016;2023-05-27T13:54:12;20.70;87.00
29713;DHT22;16623;53.632;10.016;2023-05-27T13:56:38;20.70;87.60
29713;DHT22;16623;53.632;10.016;2023-05-27T13:59:04;20.80;86.60
29713;DHT22;16623;53.632;10.016;2023-05-27T14:04:00;20.90;85.80
29713;DHT22;16623;53.632;10.016;2023-05-27T14:06:26;21.00;87.10
29713;DHT22;16623;53.632;10.016;2023-05-27T14:08:52;21.10;86.00
29713;DHT22;16623;53.632;10.016;2023-05-27T14:11:21;21.10;85.90
29713;DHT22;16623;53.632;10.016;2023-05-27T14:13:48;21.00;86.00
29713;DHT22;16623;53.632;10.016;2023-05-27T14:16:14;21.10;86.50
29713;DHT22;16623;53.632;10.016;2023-05-27T14:18:40;21.20;86.00
29713;DHT22;16623;53.632;10.016;2023-05-27T14:21:05;21.30;85.30
29713;DHT22;16623;53.632;10.016;2023-05-27T14:23:31;21.40;84.20
29713;DHT22;16623;53.632;10.016;2023-05-27T14:25:57;21.40;85.30
29713;DHT22;16623;53.632;10.016;2023-05-27T14:28:22;21.50;84.00
29713;DHT22;16623;53.632;10.016;2023-05-27T14:30:48;21.60;83.90
29713;DHT22;16623;53.632;10.016;2023-05-27T14:33:14;21.50;84.10
29713;DHT22;16623;53.632;10.016;2023-05-27T14:35:40;21.60;84.10
29713;DHT22;16623;53.632;10.016;2023-05-27T14:38:06;21.40;82.40
29713;DHT22;16623;53.632;10.016;2023-05-27T14:40:33;21.30;82.30
29713;DHT22;16623;53.632;10.016;2023-05-27T14:42:59;21.00;82.60
29713;DHT22;16623;53.632;10.016;2023-05-27T14:45:24;20.90;83.90
29713;DHT22;16623;53.632;10.016;2023-05-27T14:47:51;20.90;84.90
29713;DHT22;16623;53.632;10.016;2023-05-27T14:50:19;21.00;85.30
29713;DHT22;16623;53.632;10.016;2023-05-27T14:52:45;21.30;84.80
29713;DHT22;16623;53.632;10.016;2023-05-27T14:55:11;21.10;84.10
29713;DHT22;16623;53.632;10.016;2023-05-27T14:57:36;21.10;85.00
29713;DHT22;16623;53.632;10.016;2023-05-27T15:00:03;21.20;86.20
29713;DHT22;16623;53.632;10.016;2023-05-27T15:02:34;21.20;84.20
29713;DHT22;16623;53.632;10.016;2023-05-27T15:05:00;21.20;83.60
29713;DHT22;16623;53.632;10.016;2023-05-27T15:07:25;21.20;84.30
29713;DHT22;16623;53.632;10.016;2023-05-27T15:09:51;21.20;84.20
29713;DHT22;16623;53.632;10.016;2023-05-27T15:12:16;21.20;84.60
29713;DHT22;16623;53.632;10.016;2023-05-27T15:14:43;21.30;84.70
29713;DHT22;16623;53.632;10.016;2023-05-27T15:17:08;21.40;82.40
29713;DHT22;16623;53.632;10.016;2023-05-27T15:19:37;21.60;82.80
29713;DHT22;16623;53.632;10.016;2023-05-27T15:22:03;21.60;82.70
29713;DHT22;16623;53.632;10.016;2023-05-27T15:24:28;21.50;81.70
29713;DHT22;16623;53.632;10.016;2023-05-27T15:26:54;21.30;81.50
29713;DHT22;16623;53.632;10.016;2023-05-27T15:29:20;21.10;81.50
29713;DHT22;16623;53.632;10.016;2023-05-27T15:31:46;21.00;82.50
29713;DHT22;16623;53.632;10.016;2023-05-27T15:34:12;21.10;82.50